Time;durP1;ratioP1;P1;durP2;ratioP2;P2;SDS_P1;SDS_P2;PMS_P1;PMS_P2;Temp;Humidity;BMP_temperature;BMP_pressure;BME280_temperature;BME280_humidity;BME280_pressure;Samples;Min_cycle;Max_cycle;Signal;HPM_P1;HPM_P2
2023/03/09 00:00:31;;;;;;;1.80;1.70;;;;;;;13.79;51.29;93962.34;4988548;28;20193;-49
2023/03/09 00:02:58;;;;;;;3.63;2.13;;;;;;;13.82;51.17;93981.75;4989261;28;20196;-47
2023/03/09 00:05:25;;;;;;;2.17;1.97;;;;;;;13.80;51.37;93970.84;4989394;28;20296;-48
2023/03/09 00:07:53;;;;;;;2.30;2.10;;;;;;;13.79;51.17;93967.47;4993066;28;20711;-48
2023/03/09 00:10:20;;;;;;;2.37;2.13;;;;;;;13.79;51.33;93967.47;4993557;28;20197;-46
2023/03/09 00:12:49;;;;;;;2.37;2.00;;;;;;;13.79;51.17;93970.06;4993920;28;20197;-47
2023/03/09 00:15:16;;;;;;;2.33;2.00;;;;;;;13.77;51.35;93977.16;4993200;28;20192;-48
2023/03/09 00:17:44;;;;;;;2.17;1.97;;;;;;;13.72;51.36;93976.84;4993420;28;20296;-49
2023/03/09 00:20:17;;;;;;;2.93;2.63;;;;;;;13.71;51.61;93985.53;4993046;28;20184;-47
2023/03/09 00:22:48;;;;;;;3.50;2.93;;;;;;;13.66;51.39;93984.47;4993520;28;20189;-46
2023/03/09 00:25:15;;;;;;;3.70;2.97;;;;;;;13.60;51.58;93974.88;4991532;28;20228;-46
2023/03/09 00:27:42;;;;;;;4.50;3.20;;;;;;;13.55;51.68;93978.75;4992388;28;20189;-49
2023/03/09 00:30:13;;;;;;;3.80;3.30;;;;;;;13.50;51.71;93978.47;4992867;28;20593;-48
2023/03/09 00:32:39;;;;;;;3.50;3.20;;;;;;;13.45;51.71;93975.66;4993001;28;20193;-47
2023/03/09 00:35:08;;;;;;;5.43;3.50;;;;;;;13.39;51.83;93965.28;4993403;28;20200;-46
2023/03/09 00:37:37;;;;;;;5.10;4.17;;;;;;;13.36;51.99;93975.88;4992786;28;20224;-47
2023/03/09 00:40:06;;;;;;;5.03;3.70;;;;;;;13.31;52.00;93976.41;4993451;28;20189;-47
2023/03/09 00:42:33;;;;;;;4.47;4.07;;;;;;;13.25;52.25;93948.81;4993238;28;20228;-48
2023/03/09 00:45:02;;;;;;;5.30;4.30;;;;;;;13.21;52.12;93935.53;4993188;28;20200;-53
2023/03/09 00:47:30;;;;;;;5.97;4.93;;;;;;;13.18;51.99;93953.84;4992301;28;20199;-49
2023/03/09 00:49:57;;;;;;;7.00;4.57;;;;;;;13.14;52.08;93952.56;4991809;28;20193;-53
2023/03/09 00:52:23;;;;;;;7.63;4.43;;;;;;;13.11;52.07;93957.25;4991588;28;20205;-52
2023/03/09 00:54:53;;;;;;;6.80;5.27;;;;;;;13.09;52.15;93946.38;4992695;28;20228;-49
2023/03/09 00:57:20;;;;;;;6.63;5.20;;;;;;;13.04;52.43;93947.69;4992687;28;20208;-49
2023/03/09 00:59:47;;;;;;;5.90;4.60;;;;;;;13.00;52.42;93961.81;4993013;28;20193;-50
2023/03/09 01:02:14;;;;;;;6.73;4.83;;;;;;;12.98;52.61;93960.38;4991900;28;20193;-46
2023/03/09 01:04:42;;;;;;;7.97;5.63;;;;;;;12.95;52.50;93955.59;4992499;28;20222;-47
2023/03/09 01:07:09;;;;;;;8.20;5.47;;;;;;;12.93;52.52;93976.28;4992504;28;20181;-46
2023/03/09 01:09:37;;;;;;;8.30;5.37;;;;;;;12.89;52.55;93949.38;4992706;28;20204;-49
2023/03/09 01:12:04;;;;;;;10.17;5.77;;;;;;;12.89;52.63;93953.72;4992102;28;20203;-49
2023/03/09 01:14:31;;;;;;;7.63;5.67;;;;;;;12.85;52.51;93949.88;4991948;28;20193;-49
2023/03/09 01:16:58;;;;;;;7.43;5.47;;;;;;;12.83;52.87;93952.63;4990658;28;20299;-48
2023/03/09 01:19:25;;;;;;;7.20;5.03;;;;;;;12.80;52.78;93938.34;4991035;28;20193;-47
2023/03/09 01:21:53;;;;;;;5.93;4.97;;;;;;;12.79;52.92;93936.78;4992354;28;20197;-46
2023/03/09 01:24:20;;;;;;;11.97;6.23;;;;;;;12.76;52.96;93929.41;4991816;28;20248;-47
2023/03/09 01:26:47;;;;;;;6.17;5.07;;;;;;;12.73;53.01;93934.88;4992219;28;20200;-48
2023/03/09 01:29:14;;;;;;;8.20;5.73;;;;;;;12.72;52.89;93932.47;4992396;28;20189;-51
2023/03/09 01:31:40;;;;;;;9.43;5.10;;;;;;;12.70;52.95;93927.53;4991889;28;20194;-49
2023/03/09 01:34:07;;;;;;;7.83;5.97;;;;;;;12.68;53.00;93931.22;4991363;28;20568;-49
2023/03/09 01:36:34;;;;;;;7.50;5.50;;;;;;;12.66;53.18;93933.16;4992148;28;20220;-51
2023/03/09 01:39:02;;;;;;;9.33;5.40;;;;;;;12.64;53.08;93925.63;4991778;28;20664;-49
2023/03/09 01:41:29;;;;;;;6.07;5.13;;;;;;;12.64;53.04;93927.38;4990001;28;20197;-49
2023/03/09 01:43:56;;;;;;;7.60;5.43;;;;;;;12.62;53.15;93921.66;4991709;28;20197;-49
2023/03/09 01:46:48;;;;;;;8.67;5.97;;;;;;;12.61;53.25;93907.19;4992034;28;20186;-50
2023/03/09 01:49:28;;;;;;;9.43;5.80;;;;;;;12.56;53.26;93897.44;4991585;28;20193;-52
2023/03/09 01:52:05;;;;;;;6.63;5.00;;;;;;;12.57;53.28;93903.41;4991877;28;20266;-50
2023/03/09 01:54:39;;;;;;;9.57;5.60;;;;;;;12.54;53.32;93914.78;4991351;28;20228;-51
2023/03/09 01:57:11;;;;;;;7.13;4.97;;;;;;;12.54;53.20;93917.34;4991732;28;20204;-50
2023/03/09 01:59:40;;;;;;;8.60;4.80;;;;;;;12.48;53.59;93900.88;4992114;28;20185;-45
2023/03/09 02:02:08;;;;;;;9.03;5.80;;;;;;;12.50;53.55;93906.63;4991510;28;20507;-46
2023/03/09 02:04:39;;;;;;;7.03;4.43;;;;;;;12.47;53.51;93909.53;4991431;28;20197;-49
2023/03/09 02:07:06;;;;;;;8.00;4.93;;;;;;;12.47;53.34;93922.34;4990961;28;20185;-45
2023/03/09 02:09:39;;;;;;;11.93;5.80;;;;;;;12.42;53.59;93903.31;4991342;28;20208;-47
2023/03/09 02:12:08;;;;;;;6.17;4.93;;;;;;;12.45;53.57;93910.66;4991374;28;20248;-47
2023/03/09 02:14:36;;;;;;;7.23;4.90;;;;;;;12.43;53.37;93920.28;4991396;28;20196;-47
2023/03/09 02:17:03;;;;;;;8.70;5.37;;;;;;;12.42;53.58;93937.44;4990721;28;20205;-46
2023/03/09 02:19:43;;;;;;;7.47;5.23;;;;;;;12.41;53.49;93924.78;4990883;28;20193;-45
2023/03/09 02:22:11;;;;;;;7.33;4.77;;;;;;;12.39;53.43;93922.41;4991169;28;20178;-47
2023/03/09 02:24:49;;;;;;;6.97;5.00;;;;;;;12.38;53.59;93913.09;4991397;28;20269;-46
2023/03/09 02:27:19;;;;;;;7.27;4.90;;;;;;;12.37;53.64;93916.63;4991053;28;20189;-45
2023/03/09 02:29:46;;;;;;;6.77;4.97;;;;;;;12.36;53.63;93934.75;4990018;28;20255;-49
2023/03/09 02:32:14;;;;;;;6.50;5.00;;;;;;;12.34;53.64;93931.53;4990920;28;20200;-45
2023/03/09 02:34:41;;;;;;;5.60;4.47;;;;;;;12.35;53.81;93931.41;4990808;28;20236;-45
2023/03/09 02:37:23;;;;;;;6.07;4.63;;;;;;;12.33;53.83;93927.38;4990373;28;20232;-48
2023/03/09 02:39:51;;;;;;;6.57;4.30;;;;;;;12.26;53.69;93928.06;4991006;28;20235;-49
2023/03/09 02:42:20;;;;;;;8.03;5.03;;;;;;;12.29;53.82;93921.78;4990733;28;20188;-50
2023/03/09 02:44:48;;;;;;;8.47;4.60;;;;;;;12.29;53.93;93925.16;4991088;28;20189;-46
2023/03/09 02:47:20;;;;;;;7.07;4.50;;;;;;;12.27;54.19;93924.53;4990281;28;20201;-47
2023/03/09 02:49:46;;;;;;;8.83;4.30;;;;;;;12.30;54.00;93913.13;4990525;28;20189;-48
2023/03/09 02:52:13;;;;;;;7.97;4.73;;;;;;;12.26;54.13;93917.81;4990511;28;20290;-49
2023/03/09 02:54:40;;;;;;;8.03;4.67;;;;;;;12.29;53.92;93930.28;4990249;28;21027;-47
2023/03/09 02:57:07;;;;;;;6.67;4.40;;;;;;;12.30;54.11;93934.47;4990264;28;20220;-48
2023/03/09 02:59:35;;;;;;;6.00;4.73;;;;;;;12.31;54.00;93922.44;4990078;28;20193;-45
2023/03/09 03:02:03;;;;;;;9.03;4.60;;;;;;;12.25;53.95;93926.44;4991368;28;20181;-47
2023/03/09 03:04:31;;;;;;;8.90;4.47;;;;;;;12.30;53.81;93934.47;4990881;28;20271;-46
2023/03/09 03:06:59;;;;;;;7.07;4.47;;;;;;;12.29;54.07;93924.34;4990937;28;20197;-48
2023/03/09 03:09:27;;;;;;;7.93;4.97;;;;;;;12.28;54.06;93938.94;4990439;28;20694;-47
2023/03/09 03:11:54;;;;;;;5.57;4.53;;;;;;;12.28;54.09;93927.88;4990295;28;20677;-47
2023/03/09 03:14:21;;;;;;;7.07;4.30;;;;;;;12.27;54.14;93952.72;4990369;28;20193;-48
2023/03/09 03:16:49;;;;;;;5.90;4.20;;;;;;;12.28;54.03;93943.28;4990307;28;20188;-46
2023/03/09 03:19:16;;;;;;;6.30;4.47;;;;;;;12.28;54.01;93950.97;4989499;28;20193;-48
2023/03/09 03:21:43;;;;;;;5.03;4.30;;;;;;;12.28;54.15;93961.22;4990147;28;20193;-52
2023/03/09 03:24:09;;;;;;;6.90;5.20;;;;;;;12.27;54.52;93951.94;4990433;28;20196;-48
2023/03/09 03:26:36;;;;;;;6.50;4.53;;;;;;;12.13;54.16;93926.97;4990275;28;20193;-47
2023/03/09 03:29:03;;;;;;;7.97;4.40;;;;;;;12.27;53.99;93946.81;4989635;28;20542;-51
2023/03/09 03:31:30;;;;;;;5.80;4.47;;;;;;;12.26;54.19;93952.88;4990009;28;20197;-51
2023/03/09 03:33:58;;;;;;;7.37;4.10;;;;;;;12.23;54.10;93963.47;4989802;28;20613;-55
2023/03/09 03:36:25;;;;;;;5.23;3.73;;;;;;;12.24;54.18;93936.88;4989446;28;20665;-48
2023/03/09 03:38:52;;;;;;;4.77;4.03;;;;;;;12.24;54.21;93947.13;4989772;28;20221;-46
2023/03/09 03:41:18;;;;;;;5.30;4.33;;;;;;;12.24;54.23;93953.06;4988941;28;20189;-49
2023/03/09 03:43:45;;;;;;;7.30;3.80;;;;;;;12.23;54.21;93951.47;4989884;28;20193;-48
2023/03/09 03:46:12;;;;;;;4.97;3.80;;;;;;;12.22;54.40;93956.75;4989593;28;20578;-46
2023/03/09 03:48:39;;;;;;;5.63;4.03;;;;;;;12.20;54.23;93949.22;4989657;28;20216;-50
2023/03/09 03:51:07;;;;;;;5.53;3.33;;;;;;;12.18;54.35;93956.28;4989334;28;20196;-52
2023/03/09 03:53:34;;;;;;;8.43;4.20;;;;;;;12.17;54.48;93961.56;4989461;28;20267;-47
2023/03/09 03:56:02;;;;;;;8.00;4.10;;;;;;;12.16;54.38;93953.06;4989401;28;20228;-52
2023/03/09 03:58:29;;;;;;;4.97;3.80;;;;;;;12.16;54.58;93957.41;4989920;28;20283;-49
2023/03/09 04:00:56;;;;;;;4.93;3.90;;;;;;;12.14;54.36;93939.66;4989466;28;20284;-50
2023/03/09 04:03:23;;;;;;;5.33;4.30;;;;;;;12.11;54.59;93939.16;4989014;28;20697;-48
2023/03/09 04:05:50;;;;;;;4.73;3.60;;;;;;;12.05;54.94;93938.88;4989768;28;20716;-53
2023/03/09 04:08:18;;;;;;;4.63;4.03;;;;;;;12.08;54.69;93955.66;4989375;28;20189;-51
2023/03/09 04:10:45;;;;;;;6.57;4.33;;;;;;;12.07;54.74;93946.38;4989891;28;20239;-49
2023/03/09 04:13:12;;;;;;;3.63;3.33;;;;;;;12.04;54.57;93951.84;4988686;28;20260;-49
2023/03/09 04:15:39;;;;;;;5.73;3.93;;;;;;;12.02;54.71;93943.53;4989838;28;20204;-46
2023/03/09 04:18:06;;;;;;;7.40;3.93;;;;;;;11.94;54.53;93935.84;4988895;28;20294;-47
2023/03/09 04:20:33;;;;;;;6.30;4.03;;;;;;;11.97;54.97;93944.03;4989560;28;20189;-48
2023/03/09 04:23:00;;;;;;;5.27;3.50;;;;;;;11.97;54.78;93948.34;4988770;28;20196;-46
2023/03/09 04:25:28;;;;;;;5.70;3.83;;;;;;;11.96;54.74;93944.16;4989588;28;20220;-46
2023/03/09 04:27:56;;;;;;;5.87;3.27;;;;;;;11.95;54.76;93940.00;4989433;28;20281;-45
2023/03/09 04:30:23;;;;;;;5.50;3.37;;;;;;;11.93;54.85;93955.56;4989559;28;20193;-47
2023/03/09 04:32:50;;;;;;;4.33;3.10;;;;;;;11.91;54.94;93928.50;4988902;28;20199;-46
2023/03/09 04:35:18;;;;;;;5.93;3.30;;;;;;;11.91;54.83;93918.25;4988722;28;20197;-48
2023/03/09 04:37:45;;;;;;;4.40;3.47;;;;;;;11.90;54.76;93921.78;4989237;28;20255;-48
2023/03/09 04:40:13;;;;;;;4.43;3.43;;;;;;;11.77;54.92;93901.75;4989337;28;20196;-47
2023/03/09 04:42:41;;;;;;;5.47;3.13;;;;;;;11.89;54.88;93927.88;4989611;28;20797;-47
2023/03/09 04:45:09;;;;;;;4.07;3.67;;;;;;;11.90;54.97;93914.88;4988615;28;20201;-52
2023/03/09 04:47:36;;;;;;;4.43;3.30;;;;;;;11.91;54.96;93910.56;4989721;28;20185;-46
2023/03/09 04:50:02;;;;;;;4.43;3.70;;;;;;;11.90;54.94;93920.00;4988729;28;20197;-48
2023/03/09 04:52:29;;;;;;;5.27;3.33;;;;;;;11.90;55.07;93917.44;4969854;28;20224;-47
2023/03/09 04:54:56;;;;;;;4.30;3.47;;;;;;;11.91;54.95;93908.00;4977881;28;20220;-46
2023/03/09 04:57:23;;;;;;;4.93;3.27;;;;;;;11.91;54.82;93924.16;4992554;28;20197;-50
2023/03/09 04:59:51;;;;;;;3.40;3.10;;;;;;;11.90;54.95;93927.69;4992987;28;20652;-51
2023/03/09 05:02:18;;;;;;;5.87;3.83;;;;;;;11.93;54.68;93894.06;4993199;28;20219;-46
2023/03/09 05:04:44;;;;;;;5.70;3.50;;;;;;;11.95;54.92;93899.00;4992439;28;20197;-47
2023/03/09 05:07:11;;;;;;;5.17;3.37;;;;;;;11.98;55.06;93914.88;4991959;28;20280;-48
2023/03/09 05:09:38;;;;;;;6.53;3.43;;;;;;;12.03;54.78;93911.81;4992795;28;20239;-51
2023/03/09 05:12:05;;;;;;;5.67;3.90;;;;;;;12.07;54.98;93917.41;4992777;28;20193;-56
2023/03/09 05:14:32;;;;;;;4.20;2.90;;;;;;;12.09;54.79;93918.03;4992538;28;20495;-47
2023/03/09 05:17:00;;;;;;;6.40;3.60;;;;;;;12.12;54.83;93915.94;4991954;28;20579;-53
2023/03/09 05:19:27;;;;;;;4.40;3.10;;;;;;;12.15;54.99;93910.47;4972963;28;20225;-53
2023/03/09 05:21:54;;;;;;;4.93;3.40;;;;;;;12.17;55.06;93908.53;4987844;28;20197;-56
2023/03/09 05:24:21;;;;;;;5.20;3.23;;;;;;;12.25;54.85;93910.28;4991679;28;20248;-51
2023/03/09 05:26:48;;;;;;;5.43;3.47;;;;;;;12.29;54.79;93909.78;4991745;28;20666;-47
2023/03/09 05:29:14;;;;;;;4.30;3.50;;;;;;;12.37;54.83;93913.28;4992159;28;20189;-56
2023/03/09 05:31:41;;;;;;;5.33;3.53;;;;;;;12.49;54.51;93917.84;4991821;28;20264;-56
2023/03/09 05:34:09;;;;;;;4.30;3.40;;;;;;;12.75;54.29;93930.38;4991827;28;20200;-47
2023/03/09 05:36:36;;;;;;;5.70;3.13;;;;;;;13.10;53.85;93917.94;4991372;28;20204;-50
2023/03/09 05:39:04;;;;;;;7.50;3.53;;;;;;;13.51;53.65;93933.03;4991877;28;20225;-47
2023/03/09 05:41:31;;;;;;;4.77;3.80;;;;;;;13.83;53.00;93944.00;4991288;28;20629;-52
2023/03/09 05:44:00;;;;;;;3.57;3.20;;;;;;;14.23;52.98;93945.34;4991633;28;20185;-48
2023/03/09 05:46:26;;;;;;;4.40;3.50;;;;;;;14.68;52.86;93940.94;5006190;28;20251;-51
2023/03/09 05:48:53;;;;;;;3.00;2.70;;;;;;;15.10;52.61;93929.91;4992298;28;20185;-52
2023/03/09 05:51:22;;;;;;;3.93;2.80;;;;;;;15.60;52.30;93943.63;4991685;28;20219;-54
2023/03/09 05:53:48;;;;;;;4.17;2.93;;;;;;;16.07;51.85;93934.44;4991911;28;20191;-53
2023/03/09 05:56:15;;;;;;;4.70;3.70;;;;;;;16.50;51.34;93947.16;4991552;28;20245;-52
2023/03/09 05:58:42;;;;;;;4.47;2.73;;;;;;;17.10;65.92;93949.94;4991337;28;20278;-52
2023/03/09 06:01:18;;;;;;;11.90;4.30;;;;;;;17.82;62.90;93948.44;4990956;28;20185;-49
2023/03/09 06:03:46;;;;;;;8.93;3.67;;;;;;;18.38;60.89;93961.69;4990673;28;20185;-48
2023/03/09 06:06:13;;;;;;;6.37;3.33;;;;;;;18.85;59.09;93971.91;4991238;28;20197;-55
2023/03/09 06:08:41;;;;;;;4.77;3.20;;;;;;;19.24;57.94;93958.75;4991443;28;20268;-50
2023/03/09 06:11:09;;;;;;;10.23;3.30;;;;;;;19.60;56.64;93977.25;4991560;28;20193;-54
2023/03/09 06:13:36;;;;;;;8.67;2.80;;;;;;;19.92;55.61;93970.25;4991359;28;20657;-58
2023/03/09 06:16:04;;;;;;;4.57;2.80;;;;;;;20.24;54.33;93976.16;4991545;28;20181;-53
2023/03/09 06:18:31;;;;;;;5.63;3.23;;;;;;;20.43;52.89;93957.00;4991202;28;20593;-54
2023/03/09 06:21:01;;;;;;;7.37;3.20;;;;;;;20.58;52.14;93954.06;4991800;28;20208;-49
2023/03/09 06:23:28;;;;;;;8.57;3.67;;;;;;;20.72;51.65;93954.69;4991582;28;20204;-52
2023/03/09 06:25:57;;;;;;;7.17;3.47;;;;;;;20.86;51.08;93970.94;4985380;28;20212;-48
2023/03/09 06:28:24;;;;;;;4.10;2.97;;;;;;;21.00;50.35;93946.34;4990446;28;20201;-49
2023/03/09 06:30:52;;;;;;;4.37;3.67;;;;;;;21.15;49.82;93953.75;4986457;28;20207;-52
2023/03/09 06:33:19;;;;;;;4.60;3.03;;;;;;;21.37;49.49;93970.47;4988956;28;20208;-49
2023/03/09 06:35:46;;;;;;;5.28;3.60;;;;;;;21.51;49.26;93945.06;4990533;28;20207;-50
2023/03/09 06:38:13;;;;;;;5.40;3.17;;;;;;;21.71;48.58;93953.34;4990745;28;20882;-54
2023/03/09 06:40:39;;;;;;;4.72;3.70;;;;;;;21.78;48.35;93963.66;4987937;28;20212;-49
2023/03/09 06:43:08;;;;;;;9.15;3.53;;;;;;;21.88;48.19;93958.69;4989781;28;20624;-54
2023/03/09 06:45:35;;;;;;;8.10;3.22;;;;;;;21.91;48.15;93965.25;4985198;28;20217;-49
2023/03/09 06:48:02;;;;;;;4.78;3.55;;;;;;;21.91;47.86;93955.63;4987425;28;21515;-49
2023/03/09 06:50:29;;;;;;;7.47;3.28;;;;;;;21.93;47.60;93951.00;4986688;28;20197;-49
2023/03/09 06:52:56;;;;;;;4.40;3.28;;;;;;;21.91;47.40;93940.03;4990254;28;20546;-50
2023/03/09 06:55:22;;;;;;;5.38;3.38;;;;;;;21.92;47.12;93943.41;4989924;28;20235;-50
2023/03/09 06:57:49;;;;;;;5.80;3.53;;;;;;;21.93;47.12;93935.38;4990029;28;20554;-52
2023/03/09 07:00:19;;;;;;;4.75;3.30;;;;;;;21.96;46.80;93934.13;4989351;28;20197;-46
2023/03/09 07:02:46;;;;;;;5.18;3.20;;;;;;;22.02;46.75;93928.81;4990072;28;20314;-47
2023/03/09 07:05:13;;;;;;;8.80;3.60;;;;;;;22.10;46.57;93932.88;4988740;28;21758;-46
2023/03/09 07:07:42;;;;;;;5.53;3.67;;;;;;;22.19;46.27;93931.56;4986093;28;20645;-48
2023/03/09 07:10:10;;;;;;;7.40;3.17;;;;;;;22.35;45.96;93937.88;4985652;28;20243;-50
2023/03/09 07:12:37;;;;;;;5.68;3.72;;;;;;;22.51;46.09;93939.78;4987372;28;20189;-48
2023/03/09 07:15:05;;;;;;;5.70;3.42;;;;;;;22.64;45.62;93917.88;4989291;28;20649;-49
2023/03/09 07:17:34;;;;;;;7.70;3.47;;;;;;;22.73;45.54;93937.34;4988615;28;20200;-49
2023/03/09 07:20:00;;;;;;;5.93;3.22;;;;;;;22.85;45.48;93944.34;4989226;28;20586;-50
2023/03/09 07:22:27;;;;;;;5.28;3.47;;;;;;;22.99;45.13;93943.06;4988915;28;20445;-51
2023/03/09 07:24:54;;;;;;;4.03;3.00;;;;;;;23.13;44.92;93936.53;4986752;28;20653;-47
2023/03/09 07:27:21;;;;;;;4.28;3.30;;;;;;;23.29;44.78;93945.44;4988877;28;20677;-47
2023/03/09 07:29:48;;;;;;;3.72;2.97;;;;;;;23.30;44.62;93926.16;4989531;28;20193;-50
2023/03/09 07:32:15;;;;;;;5.53;3.38;;;;;;;23.62;44.44;93952.53;4989032;28;20209;-47
2023/03/09 07:34:46;;;;;;;5.15;3.17;;;;;;;23.83;44.46;93951.03;4989018;28;20597;-46
2023/03/09 07:37:13;;;;;;;6.57;3.80;;;;;;;24.05;43.99;93956.38;4989045;28;20279;-48
2023/03/09 07:39:40;;;;;;;7.88;3.63;;;;;;;24.26;44.05;93950.38;4989190;28;20247;-47
2023/03/09 07:42:07;;;;;;;10.68;3.63;;;;;;;24.46;43.75;93951.72;4988945;28;20197;-45
2023/03/09 07:44:34;;;;;;;5.85;3.92;;;;;;;24.59;43.61;93951.34;4989277;28;20264;-47
2023/03/09 07:47:01;;;;;;;4.68;3.78;;;;;;;24.72;43.77;93948.38;4988729;28;20193;-47
2023/03/09 07:49:28;;;;;;;9.95;3.63;;;;;;;24.92;43.43;93953.06;4988613;28;20228;-47
2023/03/09 07:51:57;;;;;;;5.13;3.97;;;;;;;25.12;43.64;93944.66;4988707;28;20193;-46
2023/03/09 07:54:23;;;;;;;7.32;3.42;;;;;;;25.20;43.18;93943.44;4986849;28;20244;-48
2023/03/09 07:56:51;;;;;;;5.45;3.72;;;;;;;25.50;42.99;93951.56;4985235;28;20189;-53
2023/03/09 07:59:19;;;;;;;8.85;4.35;;;;;;;25.56;43.13;93959.47;4988724;28;20228;-46
2023/03/09 08:01:45;;;;;;;5.15;4.07;;;;;;;25.52;43.04;93953.97;4989182;28;20715;-51
2023/03/09 08:04:13;;;;;;;4.95;4.00;;;;;;;25.50;43.41;93945.56;4988667;28;20203;-49
2023/03/09 08:06:41;;;;;;;4.88;3.30;;;;;;;25.53;43.37;93951.09;4988421;28;20240;-49
2023/03/09 08:09:13;;;;;;;5.45;3.88;;;;;;;25.67;42.51;93948.06;4988463;28;20650;-48
2023/03/09 08:11:40;;;;;;;6.05;4.15;;;;;;;25.77;42.56;93935.06;4988893;28;20228;-52
2023/03/09 08:14:07;;;;;;;6.13;4.05;;;;;;;25.81;42.84;93938.75;4988624;28;20208;-48
2023/03/09 08:16:33;;;;;;;7.20;4.05;;;;;;;25.79;42.85;93942.69;4988967;28;20236;-46
2023/03/09 08:19:00;;;;;;;6.45;3.97;;;;;;;25.77;42.44;93953.41;4987950;28;20282;-46
2023/03/09 08:21:27;;;;;;;4.88;3.60;;;;;;;25.73;42.81;93953.09;4988742;28;20674;-44
2023/03/09 08:23:54;;;;;;;6.40;4.20;;;;;;;25.63;42.54;93949.59;4988418;28;20303;-48
2023/03/09 08:26:22;;;;;;;5.05;4.18;;;;;;;25.56;42.65;93952.44;4988572;28;20772;-46
2023/03/09 08:28:49;;;;;;;4.88;4.10;;;;;;;25.50;42.57;93935.88;4991130;28;20204;-49
2023/03/09 08:31:17;;;;;;;6.28;4.22;;;;;;;25.46;42.63;93932.16;4992648;28;20209;-46
2023/03/09 08:33:44;;;;;;;6.72;5.03;;;;;;;25.46;42.43;93941.84;4991775;28;20243;-46
2023/03/09 08:36:13;;;;;;;8.73;5.25;;;;;;;25.46;42.92;93936.63;4989238;28;20190;-47
2023/03/09 08:38:40;;;;;;;6.28;4.78;;;;;;;25.52;42.37;93944.28;4990029;28;20607;-49
2023/03/09 08:41:07;;;;;;;6.20;4.32;;;;;;;25.67;42.21;93941.00;4992097;28;20196;-48
2023/03/09 08:43:35;;;;;;;6.90;5.05;;;;;;;25.85;42.35;93944.28;4992688;28;20189;-52
2023/03/09 08:46:02;;;;;;;7.53;5.40;;;;;;;25.98;41.99;93942.03;4991550;28;20684;-51
2023/03/09 08:48:29;;;;;;;8.15;4.93;;;;;;;26.07;42.10;93934.50;4990262;28;20263;-54
2023/03/09 08:50:56;;;;;;;6.88;4.20;;;;;;;26.15;42.30;93928.00;4991905;28;20209;-46
2023/03/09 08:53:23;;;;;;;8.73;4.63;;;;;;;26.19;41.87;93934.31;4991920;28;20224;-48
2023/03/09 08:55:50;;;;;;;10.18;4.60;;;;;;;26.21;42.26;93927.00;4991878;28;20229;-46
2023/03/09 08:58:17;;;;;;;9.50;4.85;;;;;;;26.15;42.32;93933.25;4992238;28;20216;-46
2023/03/09 09:00:45;;;;;;;7.25;5.05;;;;;;;26.02;42.06;93929.22;4991576;28;20584;-46
2023/03/09 09:03:12;;;;;;;5.80;4.55;;;;;;;25.86;42.16;93923.06;4992012;28;20197;-45
2023/03/09 09:05:38;;;;;;;5.32;4.72;;;;;;;25.70;42.47;93918.75;4990793;28;20619;-50
2023/03/09 09:08:05;;;;;;;10.02;5.05;;;;;;;25.51;42.44;93913.09;4988270;28;20196;-48
2023/03/09 09:10:34;;;;;;;7.25;4.88;;;;;;;25.37;42.56;93911.94;4991945;28;20779;-46
2023/03/09 09:13:01;;;;;;;8.07;4.20;;;;;;;25.19;42.47;93897.38;4991269;28;20276;-46
2023/03/09 09:15:27;;;;;;;7.93;4.95;;;;;;;24.97;42.38;93898.19;4991610;28;20569;-50
2023/03/09 09:17:56;;;;;;;7.45;4.63;;;;;;;24.78;42.42;93889.88;4991490;28;20205;-45
2023/03/09 09:20:22;;;;;;;5.38;4.38;;;;;;;24.60;42.89;93895.41;4991571;28;20620;-46
2023/03/09 09:22:49;;;;;;;6.43;4.10;;;;;;;24.43;42.96;93887.63;4991245;28;20863;-48
2023/03/09 09:25:16;;;;;;;7.70;4.55;;;;;;;24.27;42.56;93894.47;4991401;28;20185;-46
2023/03/09 09:27:43;;;;;;;6.28;4.45;;;;;;;24.18;42.58;93885.47;4991258;28;20205;-54
2023/03/09 09:30:11;;;;;;;8.10;4.25;;;;;;;24.12;42.46;93869.97;4991195;28;20196;-48
2023/03/09 09:32:40;;;;;;;9.90;4.47;;;;;;;24.00;42.46;93857.00;4990535;28;20350;-48
2023/03/09 09:35:10;;;;;;;6.97;4.95;;;;;;;23.94;42.58;93871.81;4991369;28;20209;-46
2023/03/09 09:37:37;;;;;;;6.03;4.32;;;;;;;23.84;42.81;93866.47;4990930;28;20200;-49
2023/03/09 09:40:05;;;;;;;6.50;4.45;;;;;;;23.75;43.06;93867.91;4990460;28;20229;-47
2023/03/09 09:42:37;;;;;;;5.30;4.15;;;;;;;23.78;42.61;93870.03;4990849;28;20205;-46
2023/03/09 09:45:08;;;;;;;8.20;4.45;;;;;;;23.82;42.57;93859.91;4988491;28;20190;-45
2023/03/09 09:47:35;;;;;;;5.43;3.97;;;;;;;23.85;42.67;93869.88;4990876;28;20276;-46
2023/03/09 09:50:03;;;;;;;5.68;4.00;;;;;;;23.88;42.46;93859.75;4991455;28;20192;-46
2023/03/09 09:52:50;;;;;;;7.68;4.30;;;;;;;23.90;42.63;93855.06;4990615;28;20204;-47
2023/03/09 09:55:25;;;;;;;8.35;4.07;;;;;;;23.90;42.50;93854.28;4988417;28;20658;-47
2023/03/09 09:58:01;;;;;;;6.93;4.43;;;;;;;23.90;42.38;93843.81;4987653;28;20193;-46
2023/03/09 10:00:34;;;;;;;5.63;4.10;;;;;;;23.83;42.61;93843.97;4988510;28;20216;-46
2023/03/09 10:03:09;;;;;;;6.47;4.07;;;;;;;23.83;42.25;93851.03;4988091;28;20219;-49
2023/03/09 10:05:43;;;;;;;6.13;4.30;;;;;;;23.78;42.45;93834.25;4984989;28;20224;-46
2023/03/09 10:08:25;;;;;;;5.28;3.80;;;;;;;23.73;42.66;93831.59;4985528;28;20185;-47
2023/03/09 10:10:52;;;;;;;6.80;3.83;;;;;;;23.68;42.50;93836.72;4985127;28;20697;-44
2023/03/09 10:13:24;;;;;;;7.25;4.55;;;;;;;23.63;42.55;93820.19;4988243;28;20204;-45
2023/03/09 10:15:53;;;;;;;5.30;3.35;;;;;;;23.56;42.52;93819.56;4987663;28;20680;-46
2023/03/09 10:18:30;;;;;;;11.68;3.60;;;;;;;23.49;42.76;93802.25;4987189;28;20276;-53
2023/03/09 10:20:57;;;;;;;7.30;4.20;;;;;;;23.45;42.62;93801.16;4985539;28;20247;-45
2023/03/09 10:23:28;;;;;;;6.93;3.95;;;;;;;23.42;42.58;93799.00;4990862;28;20223;-46
2023/03/09 10:26:00;;;;;;;5.80;3.60;;;;;;;23.39;42.97;93790.88;4988196;28;20200;-52
2023/03/09 10:28:35;;;;;;;4.00;3.65;;;;;;;23.32;42.76;93783.22;4990040;28;20668;-49
2023/03/09 10:31:09;;;;;;;3.42;3.10;;;;;;;23.30;42.86;93782.66;4990005;28;20196;-53
2023/03/09 10:33:43;;;;;;;6.38;3.28;;;;;;;23.29;42.97;93763.59;4988106;28;20200;-48
2023/03/09 10:36:16;;;;;;;3.92;3.30;;;;;;;23.28;42.65;93754.19;4989860;28;20287;-47
2023/03/09 10:38:45;;;;;;;7.05;3.20;;;;;;;23.27;42.74;93757.03;4989983;28;20193;-47
2023/03/09 10:41:16;;;;;;;4.57;3.28;;;;;;;23.30;42.76;93756.56;4989577;28;20220;-52
2023/03/09 10:43:42;;;;;;;4.72;3.30;;;;;;;23.32;42.65;93754.50;4989900;28;20228;-46
2023/03/09 10:46:14;;;;;;;3.88;2.85;;;;;;;23.32;42.80;93746.69;4989044;28;20570;-49
2023/03/09 10:48:42;;;;;;;4.90;2.92;;;;;;;23.31;42.70;93746.91;4987573;28;20251;-45
2023/03/09 10:51:24;;;;;;;5.95;2.67;;;;;;;23.33;42.92;93747.47;4988687;28;20200;-49
2023/03/09 10:53:54;;;;;;;2.92;2.53;;;;;;;23.31;42.69;93742.47;4989840;28;20260;-46
2023/03/09 10:56:23;;;;;;;3.75;2.55;;;;;;;23.31;42.97;93739.88;4989781;28;20228;-48
2023/03/09 10:59:09;;;;;;;3.45;2.53;;;;;;;23.30;42.79;93738.28;4989682;28;20563;-45
2023/03/09 11:01:38;;;;;;;3.70;2.85;;;;;;;23.29;42.93;93731.50;4986727;28;20312;-46
2023/03/09 11:04:29;;;;;;;2.63;2.30;;;;;;;23.27;42.71;93726.53;4989778;28;20685;-48
2023/03/09 11:06:57;;;;;;;4.60;2.50;;;;;;;23.26;42.79;93721.53;4987164;28;20200;-45
2023/03/09 11:09:31;;;;;;;2.97;2.38;;;;;;;23.26;42.63;93724.16;4987331;28;20217;-46
2023/03/09 11:12:16;;;;;;;4.95;2.75;;;;;;;23.27;42.91;93728.34;4987922;28;20858;-50
2023/03/09 11:14:47;;;;;;;3.65;2.40;;;;;;;23.20;42.79;93693.81;4987518;28;20209;-47
2023/03/09 11:17:37;;;;;;;4.30;2.17;;;;;;;23.20;42.58;93689.38;4989817;28;20234;-48
2023/03/09 11:20:29;;;;;;;2.60;2.40;;;;;;;23.28;42.48;93709.84;4988886;28;20232;-48
2023/03/09 11:23:08;;;;;;;3.10;2.40;;;;;;;23.27;43.02;93697.84;4988741;28;20196;-51
2023/03/09 11:25:44;;;;;;;2.42;2.13;;;;;;;23.28;42.75;93698.63;4989123;28;20677;-50
2023/03/09 11:28:27;;;;;;;2.85;2.35;;;;;;;23.28;42.79;93696.81;4989107;28;20201;-46
2023/03/09 11:30:56;;;;;;;3.30;2.00;;;;;;;23.28;43.00;93691.59;4989443;28;20193;-48
2023/03/09 11:33:26;;;;;;;2.17;1.98;;;;;;;23.24;42.70;93687.09;4987534;28;20648;-46
2023/03/09 11:35:54;;;;;;;3.05;2.17;;;;;;;23.22;43.03;93687.31;4987879;28;20550;-46
2023/03/09 11:38:22;;;;;;;1.88;1.77;;;;;;;23.21;42.85;93669.31;4987615;28;20212;-45
2023/03/09 11:40:58;;;;;;;3.28;2.20;;;;;;;23.22;43.05;93679.50;4988890;28;20275;-47